createdAt,value
2019-06-20T00:00:48.281Z,61.58
2019-06-20T00:03:20.676Z,62.17
2019-06-20T00:05:53.136Z,62.31
2019-06-20T00:08:25.401Z,62.61
2019-06-20T00:10:57.677Z,62.99
2019-06-20T00:13:31.797Z,63.08
2019-06-20T00:16:05.367Z,63.25
2019-06-20T00:18:37.144Z,63.71
2019-06-20T00:21:10.341Z,63.20
2019-06-20T00:23:42.570Z,63.24
2019-06-20T00:26:16.116Z,63.45
2019-06-20T00:28:48.446Z,63.92
2019-06-20T00:31:20.911Z,63.76
2019-06-20T00:33:53.228Z,62.18
2019-06-20T00:36:25.469Z,59.88
2019-06-20T00:38:57.787Z,61.50
2019-06-20T00:41:30.831Z,62.70
2019-06-20T00:44:03.467Z,62.88
2019-06-20T00:46:36.120Z,63.48
2019-06-20T00:49:08.798Z,63.94
2019-06-20T00:51:41.467Z,64.78
2019-06-20T00:54:15.009Z,64.16
2019-06-20T00:56:47.278Z,64.35
2019-06-20T00:59:19.507Z,64.73
2019-06-20T01:01:52.038Z,64.78
2019-06-20T01:04:24.689Z,64.87
2019-06-20T01:06:57.239Z,64.65
2019-06-20T01:09:29.595Z,64.40
2019-06-20T01:12:01.985Z,64.43
2019-06-20T01:14:36.240Z,64.88
2019-06-20T01:17:08.739Z,65.26
2019-06-20T01:19:41.121Z,65.76
2019-06-20T01:22:13.702Z,65.42
2019-06-20T01:24:46.249Z,61.01
2019-06-20T01:27:18.935Z,60.46
2019-06-20T01:29:51.630Z,61.87
2019-06-20T01:32:23.966Z,63.75
2019-06-20T01:34:56.494Z,64.92
2019-06-20T01:37:28.946Z,65.66
2019-06-20T01:40:02.195Z,66.54
2019-06-20T01:42:34.945Z,67.54
2019-06-20T01:45:09.161Z,67.98
2019-06-20T01:47:41.654Z,67.56
2019-06-20T01:50:14.632Z,67.02
2019-06-20T01:52:47.010Z,67.04
2019-06-20T01:55:19.262Z,67.19
2019-06-20T01:57:51.354Z,67.56
2019-06-20T02:00:38.613Z,67.51
2019-06-20T02:03:10.992Z,66.93
2019-06-20T02:05:45.481Z,66.78
2019-06-20T02:08:17.903Z,66.18
2019-06-20T02:10:50.361Z,65.84
2019-06-20T02:13:23.771Z,62.92
2019-06-20T02:15:58.038Z,58.13
2019-06-20T02:18:30.405Z,60.43
2019-06-20T02:21:03.138Z,62.01
2019-06-20T02:23:35.387Z,63.98
2019-06-20T02:26:08.775Z,64.59
2019-06-20T02:28:42.488Z,65.31
2019-06-20T02:31:15.048Z,65.37
2019-06-20T02:33:47.659Z,65.96
2019-06-20T02:36:20.535Z,65.93
2019-06-20T02:38:52.813Z,65.87
2019-06-20T02:41:25.797Z,65.58
2019-06-20T02:43:59.562Z,65.74
2019-06-20T02:46:32.123Z,65.68
2019-06-20T02:49:04.498Z,65.78
2019-06-20T02:51:38.299Z,66.15
2019-06-20T02:54:12.124Z,65.55
2019-06-20T02:56:44.497Z,65.70
2019-06-20T02:59:17.064Z,65.57
2019-06-20T03:01:50.157Z,65.04
2019-06-20T03:04:22.534Z,63.01
2019-06-20T03:06:54.946Z,62.32
2019-06-20T03:09:27.359Z,61.56
2019-06-20T03:11:59.691Z,62.85
2019-06-20T03:14:44.503Z,63.16
2019-06-20T03:17:09.862Z,63.90
2019-06-20T03:19:42.125Z,63.98
2019-06-20T03:22:15.188Z,63.51
2019-06-20T03:24:48.230Z,63.22
2019-06-20T03:27:20.952Z,63.36
2019-06-20T03:29:53.689Z,62.74
2019-06-20T03:32:26.172Z,62.15
2019-06-20T03:34:58.503Z,62.03
2019-06-20T03:37:31.267Z,62.27
2019-06-20T03:40:03.953Z,62.50
2019-06-20T03:42:36.329Z,60.51
2019-06-20T03:45:09.394Z,60.74
2019-06-20T03:47:42.653Z,60.56
2019-06-20T03:50:16.136Z,60.47
2019-06-20T03:52:51.034Z,59.03
2019-06-20T03:55:23.673Z,59.20
2019-06-20T03:57:56.444Z,59.35
2019-06-20T04:00:33.076Z,59.42
2019-06-20T04:03:09.589Z,59.06
2019-06-20T04:05:43.074Z,58.37
2019-06-20T04:08:15.820Z,57.49
2019-06-20T04:10:48.284Z,56.91
2019-06-20T04:13:21.132Z,57.76
2019-06-20T04:15:53.745Z,57.35
2019-06-20T04:18:28.339Z,57.14
2019-06-20T04:21:02.122Z,56.61
2019-06-20T04:23:35.094Z,56.71
2019-06-20T04:26:08.427Z,56.30
2019-06-20T04:28:41.197Z,55.51
2019-06-20T04:31:14.125Z,55.60
2019-06-20T04:33:47.011Z,55.82
2019-06-20T04:36:20.089Z,56.32
2019-06-20T04:38:52.771Z,56.58
2019-06-20T04:41:24.969Z,56.50
2019-06-20T04:43:59.459Z,56.16
2019-06-20T04:46:44.601Z,55.32
2019-06-20T04:49:19.739Z,55.04
2019-06-20T04:51:52.031Z,55.54
2019-06-20T04:54:24.694Z,56.05
2019-06-20T04:56:58.234Z,55.97
2019-06-20T04:59:30.570Z,56.49
2019-06-20T05:02:04.076Z,56.19
2019-06-20T05:04:36.653Z,56.19
2019-06-20T05:07:12.001Z,56.26
2019-06-20T05:09:44.782Z,56.29
2019-06-20T05:12:17.437Z,56.28
2019-06-20T05:14:49.768Z,54.91
2019-06-20T05:17:24.132Z,53.78
2019-06-20T05:19:58.642Z,52.60
2019-06-20T05:22:33.028Z,53.24
2019-06-20T05:25:06.373Z,52.94
2019-06-20T05:27:38.769Z,53.23
2019-06-20T05:30:15.862Z,53.47
2019-06-20T05:32:47.938Z,53.58
2019-06-20T05:35:20.362Z,53.34
2019-06-20T05:37:52.614Z,51.30
2019-06-20T05:40:25.116Z,51.05
2019-06-20T05:42:57.774Z,51.50
2019-06-20T05:45:31.005Z,51.90
2019-06-20T05:48:03.124Z,52.98
2019-06-20T05:50:35.375Z,52.29
2019-06-20T05:53:07.540Z,51.69
2019-06-20T05:55:40.063Z,50.77
2019-06-20T05:58:13.127Z,50.05
2019-06-20T06:00:45.281Z,50.69
2019-06-20T06:03:18.992Z,50.74
2019-06-20T06:05:54.666Z,49.82
2019-06-20T06:08:35.372Z,49.93
2019-06-20T06:11:13.031Z,50.29
2019-06-20T06:13:53.488Z,49.86
2019-06-20T06:16:28.396Z,49.39
2019-06-20T06:19:00.954Z,49.39
2019-06-20T06:21:35.295Z,49.04
2019-06-20T06:24:08.750Z,48.74
2019-06-20T06:26:42.407Z,48.93
2019-06-20T06:29:14.979Z,48.39
2019-06-20T06:31:47.690Z,47.71
2019-06-20T06:34:22.068Z,46.73
2019-06-20T06:36:54.366Z,45.46
2019-06-20T06:39:29.668Z,44.88
2019-06-20T06:42:02.776Z,44.70
2019-06-20T06:44:36.247Z,45.95
2019-06-20T06:47:08.581Z,46.13
2019-06-20T06:49:40.901Z,46.02
2019-06-20T06:52:13.607Z,45.13
2019-06-20T06:54:49.319Z,45.87
2019-06-20T06:57:24.082Z,44.91
2019-06-20T06:59:56.402Z,44.89
2019-06-20T07:02:31.057Z,42.33
2019-06-20T07:05:06.267Z,42.29
2019-06-20T07:07:40.685Z,41.19
2019-06-20T07:10:14.888Z,41.73
2019-06-20T07:12:46.122Z,42.50
2019-06-20T07:15:19.325Z,39.74
2019-06-20T07:17:51.593Z,39.93
2019-06-20T07:20:24.727Z,41.45
2019-06-20T07:23:00.462Z,42.78
2019-06-20T07:25:33.740Z,41.89
2019-06-20T07:28:06.193Z,40.36
2019-06-20T07:30:45.894Z,40.62
2019-06-20T07:33:18.934Z,40.41
2019-06-20T07:35:51.311Z,40.37
2019-06-20T07:38:24.758Z,39.14
2019-06-20T07:41:00.529Z,40.47
2019-06-20T07:43:32.689Z,40.14
2019-06-20T07:46:05.324Z,39.33
2019-06-20T07:48:39.551Z,40.35
2019-06-20T07:51:11.665Z,41.58
2019-06-20T07:53:43.992Z,41.40
2019-06-20T07:56:16.324Z,42.90
2019-06-20T07:58:52.155Z,42.39
2019-06-20T08:01:24.294Z,41.52
2019-06-20T08:06:33.802Z,36.87
2019-06-20T08:09:08.392Z,37.41
2019-06-20T08:11:41.509Z,38.45
2019-06-20T08:14:15.084Z,38.65
2019-06-20T08:16:48.199Z,38.49
2019-06-20T08:19:21.745Z,35.60
2019-06-20T08:21:53.865Z,34.91
2019-06-20T08:24:28.103Z,33.67
2019-06-20T08:27:03.180Z,34.83
2019-06-20T08:29:35.825Z,36.69
2019-06-20T08:32:10.813Z,36.59
2019-06-20T08:34:43.209Z,35.59
2019-06-20T08:37:17.776Z,32.94
2019-06-20T08:39:51.332Z,32.55
2019-06-20T08:42:23.666Z,33.70
2019-06-20T08:44:57.873Z,37.00
2019-06-20T08:47:31.581Z,37.45
2019-06-20T08:50:06.020Z,36.82
2019-06-20T08:52:42.343Z,35.83
2019-06-20T08:55:15.080Z,35.67
2019-06-20T08:57:47.728Z,36.11
2019-06-20T09:00:21.767Z,35.83
2019-06-20T09:02:55.036Z,34.47
2019-06-20T09:05:30.751Z,35.01
2019-06-20T09:08:07.110Z,33.28
2019-06-20T09:10:42.246Z,32.38
2019-06-20T09:13:14.991Z,33.17
2019-06-20T09:15:48.013Z,32.63
2019-06-20T09:18:20.209Z,31.82
2019-06-20T09:20:54.004Z,31.68
2019-06-20T09:23:26.194Z,32.25
2019-06-20T09:26:01.886Z,33.06
2019-06-20T09:28:34.524Z,33.21
2019-06-20T09:31:08.521Z,29.73
2019-06-20T09:33:40.787Z,29.83
2019-06-20T09:36:13.223Z,29.11
2019-06-20T09:38:47.895Z,29.25
2019-06-20T09:41:20.177Z,29.40
2019-06-20T09:43:54.209Z,28.96
2019-06-20T09:46:26.406Z,26.53
2019-06-20T09:48:58.785Z,26.56
2019-06-20T09:51:32.993Z,26.88
2019-06-20T09:54:05.645Z,27.08
2019-06-20T09:56:39.095Z,27.84
2019-06-20T09:59:26.930Z,27.29
2019-06-20T10:01:50.045Z,28.04
2019-06-20T10:04:22.541Z,27.91
2019-06-20T10:06:54.676Z,27.75
2019-06-20T10:09:26.910Z,26.74
2019-06-20T10:12:00.993Z,26.86
2019-06-20T10:14:33.749Z,26.49
2019-06-20T10:17:08.006Z,26.49
2019-06-20T10:19:41.557Z,25.59
2019-06-20T10:22:13.929Z,25.79
2019-06-20T10:24:47.379Z,25.28
2019-06-20T10:27:23.417Z,25.53
2019-06-20T10:29:55.754Z,25.49
2019-06-20T10:32:29.242Z,24.58
2019-06-20T10:35:01.434Z,23.74
2019-06-20T10:37:36.170Z,23.36
2019-06-20T10:40:10.020Z,22.95
2019-06-20T10:42:44.438Z,22.02
2019-06-20T10:45:17.827Z,22.61
2019-06-20T10:47:52.911Z,24.39
2019-06-20T10:50:26.333Z,24.99
2019-06-20T10:53:00.845Z,26.08
2019-06-20T10:55:33.693Z,26.80
2019-06-20T10:58:07.708Z,25.79
2019-06-20T11:00:41.758Z,23.69
2019-06-20T11:03:14.924Z,22.15
2019-06-20T11:05:48.175Z,21.60
2019-06-20T11:08:20.495Z,22.09
2019-06-20T11:10:54.699Z,22.84
2019-06-20T11:13:30.435Z,24.52
2019-06-20T11:16:04.743Z,23.13
2019-06-20T11:18:39.961Z,23.01
2019-06-20T11:21:12.225Z,22.01
2019-06-20T11:23:45.253Z,21.68
2019-06-20T11:26:17.741Z,23.37
2019-06-20T11:28:52.429Z,23.72
2019-06-20T11:31:24.532Z,23.33
2019-06-20T11:33:56.706Z,24.26
2019-06-20T11:36:29.860Z,25.07
2019-06-20T11:39:02.767Z,25.91
2019-06-20T11:41:37.999Z,24.45
2019-06-20T11:44:18.453Z,24.39
2019-06-20T11:46:50.905Z,22.30
2019-06-20T11:49:23.134Z,21.98
2019-06-20T11:51:56.921Z,21.51
2019-06-20T11:54:33.307Z,20.82
2019-06-20T11:57:05.859Z,20.39
2019-06-20T11:59:39.282Z,21.07
2019-06-20T12:02:11.493Z,20.50
2019-06-20T12:04:44.942Z,20.37
2019-06-20T12:07:20.203Z,23.20
2019-06-20T12:09:53.613Z,21.70
2019-06-20T12:12:29.980Z,20.93
2019-06-20T12:15:07.033Z,21.31
2019-06-20T12:17:41.269Z,20.82
2019-06-20T12:20:14.943Z,22.39
2019-06-20T12:22:47.238Z,23.38
2019-06-20T12:25:21.394Z,24.36
2019-06-20T12:27:54.927Z,24.68
2019-06-20T12:30:29.612Z,22.43
2019-06-20T12:33:02.242Z,22.47
2019-06-20T12:35:39.523Z,23.39
2019-06-20T12:38:16.762Z,24.13
2019-06-20T12:40:56.927Z,24.62
2019-06-20T12:43:29.947Z,23.37
2019-06-20T12:46:03.933Z,20.32
2019-06-20T12:48:39.924Z,20.32
2019-06-20T12:51:13.732Z,19.95
2019-06-20T12:53:46.544Z,18.79
2019-06-20T12:56:18.989Z,18.21
2019-06-20T12:58:53.287Z,18.25
2019-06-20T13:01:35.670Z,17.73
2019-06-20T13:03:59.646Z,17.79
2019-06-20T13:06:32.222Z,18.24
2019-06-20T13:09:11.761Z,19.00
2019-06-20T13:11:44.862Z,18.06
2019-06-20T13:14:17.236Z,17.87
2019-06-20T13:16:50.268Z,17.92
2019-06-20T13:19:22.982Z,17.87
2019-06-20T13:21:55.086Z,17.50
2019-06-20T13:24:27.287Z,17.28
2019-06-20T13:26:59.272Z,16.93
2019-06-20T13:29:32.900Z,17.69
2019-06-20T13:32:09.562Z,17.49
2019-06-20T13:34:47.150Z,18.17
2019-06-20T13:37:20.023Z,17.59
2019-06-20T13:39:52.448Z,17.41
2019-06-20T13:42:24.854Z,18.15
2019-06-20T13:44:58.183Z,18.27
2019-06-20T13:47:30.530Z,17.58
2019-06-20T13:50:04.745Z,17.55
2019-06-20T13:52:40.003Z,17.21
2019-06-20T13:55:10.836Z,17.96
2019-06-20T13:57:45.239Z,17.96
2019-06-20T14:00:19.826Z,17.61
2019-06-20T14:02:55.680Z,17.69
2019-06-20T14:05:34.480Z,16.93
2019-06-20T14:08:07.693Z,17.49
2019-06-20T14:10:40.183Z,17.94
2019-06-20T14:13:19.244Z,18.07
2019-06-20T14:15:49.022Z,17.70
2019-06-20T14:18:21.130Z,18.15
2019-06-20T14:20:55.271Z,18.04
2019-06-20T14:23:27.538Z,17.21
2019-06-20T14:26:00.068Z,16.86
2019-06-20T14:28:33.715Z,16.82
2019-06-20T14:31:06.956Z,16.51
2019-06-20T14:33:43.051Z,16.02
2019-06-20T14:36:15.720Z,16.73
2019-06-20T14:38:49.516Z,17.58
2019-06-20T14:41:22.116Z,18.38
2019-06-20T14:43:54.202Z,17.77
2019-06-20T14:46:26.483Z,17.66
2019-06-20T14:48:58.622Z,17.39
2019-06-20T14:51:32.715Z,17.89
2019-06-20T14:54:05.240Z,18.19
2019-06-20T14:56:39.677Z,18.66
2019-06-20T14:59:11.876Z,21.12
2019-06-20T15:01:46.402Z,21.72
2019-06-20T15:04:19.147Z,22.84
2019-06-20T15:06:52.402Z,24.01
2019-06-20T15:09:25.214Z,24.95
2019-06-20T15:11:57.785Z,24.63
2019-06-20T15:14:31.032Z,24.87
2019-06-20T15:17:03.238Z,25.23
2019-06-20T15:19:35.620Z,25.58
2019-06-20T15:22:07.739Z,26.80
2019-06-20T15:24:39.988Z,26.57
2019-06-20T15:27:12.467Z,26.79
2019-06-20T15:29:47.010Z,25.89
2019-06-20T15:32:19.143Z,25.73
2019-06-20T15:34:53.306Z,26.29
2019-06-20T15:37:26.748Z,26.18
2019-06-20T15:39:58.742Z,26.54
2019-06-20T15:42:30.811Z,27.07
2019-06-20T15:45:03.091Z,26.87
2019-06-20T15:47:35.357Z,27.69
2019-06-20T15:50:10.996Z,26.79
2019-06-20T15:52:43.311Z,27.10
2019-06-20T15:55:18.210Z,27.37
2019-06-20T15:57:53.943Z,27.21
2019-06-20T16:00:25.847Z,26.72
2019-06-20T16:03:09.616Z,26.80
2019-06-20T16:05:30.961Z,26.83
2019-06-20T16:08:03.466Z,27.42
2019-06-20T16:10:35.724Z,28.24
2019-06-20T16:13:07.747Z,28.62
2019-06-20T16:15:39.849Z,28.31
2019-06-20T16:18:14.133Z,27.94
2019-06-20T16:20:46.367Z,28.41
2019-06-20T16:23:18.582Z,28.83
2019-06-20T16:25:54.780Z,29.48
2019-06-20T16:28:27.457Z,28.95
2019-06-20T16:31:10.062Z,29.26
2019-06-20T16:33:34.300Z,29.10
2019-06-20T16:36:13.013Z,29.18
2019-06-20T16:38:55.572Z,28.98
2019-06-20T16:41:31.251Z,29.56
2019-06-20T16:44:09.145Z,29.90
2019-06-20T16:46:42.551Z,30.11
2019-06-20T16:49:14.883Z,29.61
2019-06-20T16:51:53.787Z,29.34
2019-06-20T16:54:28.985Z,29.43
2019-06-20T16:57:02.738Z,29.90
2019-06-20T16:59:35.137Z,29.57
2019-06-20T17:02:07.898Z,30.06
2019-06-20T17:04:40.013Z,30.14
2019-06-20T17:07:13.242Z,30.16
2019-06-20T17:09:45.544Z,30.12
2019-06-20T17:12:17.869Z,30.27
2019-06-20T17:14:49.911Z,30.75
2019-06-20T17:17:29.341Z,30.55
2019-06-20T17:20:02.069Z,30.73
2019-06-20T17:22:35.561Z,31.10
2019-06-20T17:25:08.045Z,30.93
2019-06-20T17:27:40.746Z,30.22
2019-06-20T17:30:15.425Z,30.33
2019-06-20T17:32:48.964Z,30.53
2019-06-20T17:35:21.220Z,30.79
2019-06-20T17:37:56.118Z,30.66
2019-06-20T17:40:28.314Z,31.37
2019-06-20T17:43:00.440Z,31.37
2019-06-20T17:45:34.918Z,31.53
2019-06-20T17:48:11.231Z,31.53
2019-06-20T17:50:50.170Z,31.31
2019-06-20T17:53:22.686Z,32.38
2019-06-20T17:55:55.113Z,32.38
2019-06-20T17:58:27.336Z,32.44
2019-06-20T18:00:59.736Z,32.63
2019-06-20T18:03:32.306Z,32.63
2019-06-20T18:06:04.628Z,32.87
2019-06-20T18:08:38.688Z,32.87
2019-06-20T18:11:10.931Z,33.03
2019-06-20T18:13:44.254Z,32.88
2019-06-20T18:16:25.091Z,33.40
2019-06-20T18:18:51.760Z,33.76
2019-06-20T18:21:24.247Z,34.08
2019-06-20T18:23:56.912Z,34.09
2019-06-20T18:26:29.087Z,34.09
2019-06-20T18:29:01.663Z,34.52
2019-06-20T18:31:34.094Z,34.67
2019-06-20T18:34:10.163Z,34.74
2019-06-20T18:36:43.497Z,35.21
2019-06-20T18:39:17.403Z,35.60
2019-06-20T18:41:49.936Z,35.91
2019-06-20T18:44:22.549Z,36.35
2019-06-20T18:46:55.051Z,36.56
2019-06-20T18:49:28.390Z,37.10
2019-06-20T18:52:01.039Z,37.73
2019-06-20T18:54:33.550Z,38.13
2019-06-20T18:57:08.332Z,38.47
2019-06-20T18:59:40.965Z,39.08
2019-06-20T19:02:14.412Z,38.54
2019-06-20T19:04:50.763Z,37.85
2019-06-20T19:07:21.099Z,37.51
2019-06-20T19:09:54.331Z,38.54
2019-06-20T19:12:27.277Z,39.37
2019-06-20T19:15:00.749Z,39.99
2019-06-20T19:17:33.272Z,40.62
2019-06-20T19:20:09.143Z,41.35
2019-06-20T19:22:45.136Z,41.50
2019-06-20T19:25:20.413Z,41.90
2019-06-20T19:27:53.113Z,41.98
2019-06-20T19:30:31.049Z,42.42
2019-06-20T19:33:03.779Z,42.39
2019-06-20T19:35:36.331Z,42.95
2019-06-20T19:38:08.718Z,42.41
2019-06-20T19:40:48.537Z,41.44
2019-06-20T19:43:22.179Z,41.93
2019-06-20T19:45:55.797Z,41.57
2019-06-20T19:48:28.628Z,42.43
2019-06-20T19:51:01.254Z,43.05
2019-06-20T19:53:33.798Z,42.81
2019-06-20T19:56:06.459Z,43.39
2019-06-20T19:58:38.949Z,43.77
2019-06-20T20:01:11.601Z,44.03
2019-06-20T20:03:44.865Z,44.64
2019-06-20T20:06:17.196Z,44.78
2019-06-20T20:08:53.860Z,44.75
2019-06-20T20:11:27.670Z,45.29
2019-06-20T20:14:00.126Z,45.62
2019-06-20T20:16:34.741Z,45.82
2019-06-20T20:19:08.866Z,46.55
2019-06-20T20:21:41.922Z,45.32
2019-06-20T20:24:17.577Z,43.84
2019-06-20T20:26:50.840Z,43.68
2019-06-20T20:29:23.995Z,44.81
2019-06-20T20:32:01.552Z,45.48
2019-06-20T20:34:33.934Z,45.94
2019-06-20T20:37:06.669Z,45.32
2019-06-20T20:39:40.631Z,45.48
2019-06-20T20:42:13.940Z,45.91
2019-06-20T20:44:46.321Z,46.28
2019-06-20T20:47:18.726Z,46.38
2019-06-20T20:49:52.328Z,46.49
2019-06-20T20:52:24.750Z,46.67
2019-06-20T20:54:57.584Z,46.62
2019-06-20T20:57:31.812Z,46.64
2019-06-20T21:00:34.646Z,46.87
2019-06-20T21:03:08.528Z,42.93
2019-06-20T21:05:50.883Z,40.29
2019-06-20T21:08:14.812Z,38.99
2019-06-20T21:10:47.285Z,40.56
2019-06-20T21:13:19.626Z,41.83
2019-06-20T21:15:52.083Z,43.08
2019-06-20T21:18:24.771Z,43.96
2019-06-20T21:20:57.231Z,43.93
2019-06-20T21:23:30.317Z,44.17
2019-06-20T21:26:02.682Z,44.53
2019-06-20T21:28:34.835Z,44.90
2019-06-20T21:31:07.283Z,44.75
2019-06-20T21:33:40.667Z,44.76
2019-06-20T21:36:14.907Z,44.97
2019-06-20T21:38:52.567Z,45.11
2019-06-20T21:41:25.081Z,45.39
2019-06-20T21:44:03.097Z,45.33
2019-06-20T21:46:35.459Z,45.00
2019-06-20T21:49:13.638Z,42.88
2019-06-20T21:51:46.072Z,39.84
2019-06-20T21:54:19.136Z,39.83
2019-06-20T21:56:51.532Z,40.94
2019-06-20T21:59:24.543Z,42.25
2019-06-20T22:01:57.828Z,43.11
2019-06-20T22:04:32.565Z,44.24
2019-06-20T22:07:05.233Z,44.38
2019-06-20T22:09:38.840Z,44.92
2019-06-20T22:12:11.810Z,45.34
2019-06-20T22:14:44.224Z,45.46
2019-06-20T22:17:16.786Z,45.85
2019-06-20T22:19:49.057Z,46.20
2019-06-20T22:22:21.221Z,46.24
2019-06-20T22:24:55.414Z,46.34
2019-06-20T22:27:28.074Z,46.54
2019-06-20T22:30:03.721Z,46.91
2019-06-20T22:32:34.667Z,47.02
2019-06-20T22:35:08.921Z,47.04
2019-06-20T22:37:41.221Z,47.50
2019-06-20T22:40:16.217Z,46.28
2019-06-20T22:42:48.455Z,44.45
2019-06-20T22:45:22.007Z,41.91
2019-06-20T22:47:55.947Z,43.36
2019-06-20T22:50:29.936Z,45.25
2019-06-20T22:53:04.342Z,46.83
2019-06-20T22:55:37.778Z,47.51
2019-06-20T22:58:10.289Z,48.58
2019-06-20T23:00:45.991Z,49.45
2019-06-20T23:03:19.180Z,49.61
2019-06-20T23:05:52.758Z,50.31
2019-06-20T23:08:26.769Z,50.57
2019-06-20T23:10:59.017Z,50.63
2019-06-20T23:13:31.663Z,50.19
2019-06-20T23:16:04.174Z,50.10
2019-06-20T23:18:36.763Z,50.24
2019-06-20T23:21:09.227Z,50.80
2019-06-20T23:23:41.966Z,51.22
2019-06-20T23:26:15.020Z,51.92
2019-06-20T23:28:48.755Z,48.97
2019-06-20T23:31:20.971Z,47.02
2019-06-20T23:33:53.648Z,46.64
2019-06-20T23:36:26.195Z,47.16
2019-06-20T23:38:59.950Z,48.66
2019-06-20T23:41:32.277Z,49.64
2019-06-20T23:44:05.122Z,50.25
2019-06-20T23:46:38.496Z,50.92
2019-06-20T23:49:10.899Z,51.68
2019-06-20T23:51:57.242Z,52.21
2019-06-20T23:54:29.501Z,52.22
2019-06-20T23:57:02.155Z,52.03
2019-06-20T23:59:36.272Z,52.28
